createdAt,value
2023-01-22T00:00:23.437Z,61544
2023-01-22T00:05:25.360Z,61544
2023-01-22T00:10:27.025Z,61544
2023-01-22T00:15:28.727Z,61544
2023-01-22T00:20:30.465Z,61544
2023-01-22T00:25:32.154Z,61544
2023-01-22T00:30:33.778Z,61544
2023-01-22T00:35:35.404Z,61544
2023-01-22T00:40:37.134Z,61544
2023-01-22T00:45:38.857Z,61544
2023-01-22T00:50:40.505Z,8744
2023-01-22T00:55:42.180Z,7644
2023-01-22T01:00:43.843Z,2744
2023-01-22T01:05:45.515Z,2744
2023-01-22T01:10:47.164Z,2313.23077
2023-01-22T01:15:48.818Z,1312.88889
2023-01-22T01:20:50.631Z,1201.14286
2023-01-22T01:25:52.263Z,3567.52941
2023-01-22T01:30:53.992Z,12264
2023-01-22T01:35:55.683Z,2622.26087
2023-01-22T01:40:57.280Z,1283.13043
2023-01-22T01:45:58.915Z,1608.86486
2023-01-22T01:51:00.567Z,4344
2023-01-22T01:56:02.449Z,3186.10526
2023-01-22T02:01:04.152Z,12264
2023-01-22T02:06:05.840Z,20477.33333
2023-01-22T02:11:07.473Z,30744
2023-01-22T02:16:09.223Z,61544
2023-01-22T02:21:10.894Z,61544
2023-01-22T02:26:12.597Z,61544
2023-01-22T02:31:14.548Z,61544
2023-01-22T02:36:16.287Z,61544
2023-01-22T02:41:17.906Z,61544
2023-01-22T02:46:19.525Z,61544
2023-01-22T02:51:21.274Z,61544
2023-01-22T02:56:23.127Z,61544
2023-01-22T03:01:24.866Z,61544
2023-01-22T03:06:26.707Z,61544
2023-01-22T03:11:28.439Z,61544
2023-01-22T03:16:30.105Z,30744
2023-01-22T03:21:32.109Z,61544
2023-01-22T03:26:34.045Z,61544
2023-01-22T03:31:35.741Z,61544
2023-01-22T03:36:37.450Z,61544
2023-01-22T03:41:39.151Z,61544
2023-01-22T03:46:40.995Z,61544
2023-01-22T03:51:42.649Z,61544
2023-01-22T03:56:44.303Z,61544
2023-01-22T04:01:45.950Z,61544
2023-01-22T04:06:47.585Z,61544
2023-01-22T04:11:49.234Z,61544
2023-01-22T04:16:50.871Z,61544
2023-01-22T04:21:52.663Z,61544
2023-01-22T04:26:54.275Z,30744
2023-01-22T04:31:55.868Z,30744
2023-01-22T04:36:57.521Z,61544
2023-01-22T04:41:59.144Z,30744
2023-01-22T04:47:01.035Z,61544
2023-01-22T04:52:02.664Z,30744
2023-01-22T04:57:04.377Z,20477.33333
2023-01-22T05:02:06.067Z,10210.66667
2023-01-22T05:07:07.763Z,15344
2023-01-22T05:12:09.446Z,61544
2023-01-22T05:17:11.073Z,61544
2023-01-22T05:22:12.705Z,30744
2023-01-22T05:27:14.351Z,6788.44444
2023-01-22T05:32:16.014Z,20477.33333
2023-01-22T05:37:17.720Z,30744
2023-01-22T05:42:19.397Z,61544
2023-01-22T05:47:21.016Z,61544
2023-01-22T05:52:22.650Z,61544
2023-01-22T05:57:24.421Z,61544
2023-01-22T06:02:26.076Z,61544
2023-01-22T06:07:27.921Z,61544
2023-01-22T06:12:29.581Z,61544
2023-01-22T06:17:31.182Z,61544
2023-01-22T06:22:32.799Z,61544
2023-01-22T06:27:34.601Z,30744
2023-01-22T06:32:36.340Z,30744
2023-01-22T06:37:37.955Z,20477.33333
2023-01-22T06:42:39.773Z,30744
2023-01-22T06:47:41.411Z,30744
2023-01-22T06:52:43.046Z,61544
2023-01-22T06:57:44.817Z,15344
2023-01-22T07:02:46.576Z,6104
2023-01-22T07:07:48.196Z,3794
2023-01-22T07:12:49.774Z,2225.48148
2023-01-22T07:17:51.448Z,4344
2023-01-22T07:22:53.077Z,4682.46154
2023-01-22T07:27:54.754Z,3024
2023-01-22T07:32:56.352Z,3794
2023-01-22T07:37:58.093Z,2622.26087
2023-01-22T07:42:59.678Z,2313.23077
2023-01-22T07:48:01.588Z,2068.13793
2023-01-22T07:53:03.208Z,2313.23077
2023-01-22T07:58:04.859Z,2225.48148
2023-01-22T08:03:06.463Z,1655.11111
2023-01-22T08:08:08.089Z,1484
2023-01-22T08:13:09.702Z,1446.43902
2023-01-22T08:18:11.389Z,1608.86486
2023-01-22T08:23:13.133Z,1931.09677
2023-01-22T08:28:14.782Z,1704
2023-01-22T08:33:16.435Z,1997.33333
2023-01-22T08:38:18.236Z,3366.22222
2023-01-22T08:43:19.958Z,5077.33333
2023-01-22T08:48:26.633Z,2744
2023-01-22T08:53:28.214Z,1106.26415
2023-01-22T08:58:29.815Z,606.36559
2023-01-22T09:03:31.407Z,547.92157
2023-01-22T09:08:33.003Z,863.40299
2023-01-22T09:13:34.692Z,1024.70175
2023-01-22T09:18:36.383Z,1151.84314
2023-01-22T09:23:38.250Z,1810.66667
2023-01-22T09:28:39.851Z,1151.84314
2023-01-22T09:33:41.468Z,1523.48718
2023-01-22T09:38:43.229Z,1106.26415
2023-01-22T09:43:44.927Z,1523.48718
2023-01-22T09:48:46.533Z,3794
2023-01-22T09:53:48.175Z,15344
2023-01-22T09:58:49.857Z,4050.66667
2023-01-22T10:03:51.604Z,1869
2023-01-22T10:08:53.225Z,3186.10526
2023-01-22T10:13:54.852Z,1755.76471
2023-01-22T10:18:56.958Z,1283.13043
2023-01-22T10:23:58.775Z,2144
2023-01-22T10:29:00.512Z,2313.23077
2023-01-22T10:34:02.153Z,1312.88889
2023-01-22T10:39:03.779Z,1151.84314
2023-01-22T10:44:05.504Z,384
2023-01-22T10:49:07.148Z,498.95495
2023-01-22T10:54:08.783Z,636.13483
2023-01-22T10:59:10.467Z,953.83607
2023-01-22T11:04:12.090Z,1704
2023-01-22T11:09:13.832Z,1869
2023-01-22T11:14:15.415Z,3024
2023-01-22T11:19:23.835Z,1283.13043
2023-01-22T11:24:30.994Z,723.74684
2023-01-22T11:29:32.636Z,592.42105
2023-01-22T11:34:34.289Z,849.88235
2023-01-22T11:39:36.119Z,1410.66667
2023-01-22T11:44:37.752Z,1376.55814
2023-01-22T11:49:39.466Z,1312.88889
2023-01-22T11:54:41.113Z,1128.61538
2023-01-22T11:59:42.699Z,1151.84314
2023-01-22T12:04:44.522Z,536.30769
2023-01-22T12:09:46.212Z,498.95495
2023-01-22T12:14:47.801Z,592.42105
2023-01-22T12:19:49.447Z,606.36559
2023-01-22T12:24:51.135Z,494
2023-01-22T12:29:52.829Z,354.66667
2023-01-22T12:34:54.583Z,530.66667
2023-01-22T12:39:56.232Z,525.13208
2023-01-22T12:44:57.871Z,338.87179
2023-01-22T12:49:59.484Z,282.46154
2023-01-22T12:55:01.378Z,240.15385
2023-01-22T13:00:03.179Z,210.66667
2023-01-22T13:05:04.996Z,432.88889
2023-01-22T13:10:06.691Z,836.75362
2023-01-22T13:15:08.319Z,384
2023-01-22T13:20:10.007Z,432.88889
2023-01-22T13:25:11.621Z,475.03448
2023-01-22T13:30:13.367Z,953.83607
2023-01-22T13:35:15.080Z,677.33333
2023-01-22T13:40:17.075Z,336.35669
2023-01-22T13:45:18.886Z,400.2963
2023-01-22T13:50:20.789Z,547.92157
2023-01-22T13:55:22.613Z,351.94702
2023-01-22T14:00:24.338Z,278.78261
2023-01-22T14:05:26.003Z,275.1828
2023-01-22T14:10:27.608Z,247.44828
2023-01-22T14:15:29.183Z,208.37768
2023-01-22T14:20:31.025Z,201.74059
2023-01-22T14:25:32.651Z,206.12766
2023-01-22T14:30:34.362Z,572.57143
2023-01-22T14:35:36.085Z,572.57143
2023-01-22T14:40:37.912Z,425.25
2023-01-22T14:45:39.724Z,380.87943
2023-01-22T14:50:41.482Z,461.64706
2023-01-22T14:55:43.359Z,824
2023-01-22T15:00:45.073Z,877.33333
2023-01-22T15:05:46.706Z,744
2023-01-22T15:10:48.300Z,380.87943
2023-01-22T15:15:50.016Z,273.41176
2023-01-22T15:20:51.667Z,292.0226
2023-01-22T15:25:53.266Z,231.85047
2023-01-22T15:30:54.904Z,248.9505
2023-01-22T15:35:56.530Z,436.8
2023-01-22T15:40:58.201Z,336.35669
2023-01-22T15:45:59.868Z,400.2963
2023-01-22T15:51:01.625Z,599.31915
2023-01-22T15:56:03.374Z,368.82759
2023-01-22T16:01:05.156Z,278.78261
2023-01-22T16:06:06.785Z,263.17098
2023-01-22T16:11:08.318Z,273.41176
2023-01-22T16:16:09.908Z,282.46154
2023-01-22T16:21:11.634Z,268.21053
2023-01-22T16:26:13.480Z,241.58454
2023-01-22T16:31:15.138Z,217.77778
2023-01-22T16:36:16.902Z,229.18519
2023-01-22T16:41:24.444Z,275.1828
2023-01-22T16:46:26.931Z,321.91411
2023-01-22T16:51:28.631Z,380.87943
2023-01-22T16:56:30.557Z,374.76923
2023-01-22T17:01:32.190Z,494
2023-01-22T17:06:33.911Z,906.5
2023-01-22T17:11:35.902Z,714
2023-01-22T17:16:37.594Z,1655.11111
2023-01-22T17:21:39.423Z,3186.10526
2023-01-22T17:26:41.018Z,4344
2023-01-22T17:31:42.857Z,3567.52941
2023-01-22T17:36:44.553Z,2622.26087
2023-01-22T17:41:46.183Z,1446.43902
2023-01-22T17:46:47.800Z,1869
2023-01-22T17:51:49.648Z,2144
2023-01-22T17:56:51.466Z,1176
2023-01-22T18:01:53.129Z,3567.52941
2023-01-22T18:06:54.808Z,3567.52941
2023-01-22T18:11:57.508Z,2144
2023-01-22T18:16:59.118Z,3366.22222
2023-01-22T18:22:00.781Z,3024
2023-01-22T18:27:02.424Z,4682.46154
2023-01-22T18:32:04.078Z,5077.33333
2023-01-22T18:37:05.915Z,6104
2023-01-22T18:42:07.600Z,6788.44444
2023-01-22T18:47:09.205Z,5544
2023-01-22T18:52:10.822Z,61544
2023-01-22T18:57:12.553Z,0
2023-01-22T19:02:14.199Z,61544
2023-01-22T19:07:15.849Z,61544
2023-01-22T19:12:17.537Z,61544
2023-01-22T19:17:19.187Z,61544
2023-01-22T19:22:20.851Z,61544
2023-01-22T19:27:22.605Z,61544
2023-01-22T19:32:24.272Z,61544
2023-01-22T19:37:25.935Z,0
2023-01-22T19:42:27.546Z,0
2023-01-22T19:47:29.216Z,0
2023-01-22T19:52:30.890Z,0
2023-01-22T19:57:32.524Z,0
2023-01-22T20:02:34.215Z,0
2023-01-22T20:07:35.889Z,61544
2023-01-22T20:12:37.518Z,61544
2023-01-22T20:17:39.161Z,61544
2023-01-22T20:22:40.813Z,0
2023-01-22T20:27:42.507Z,0
2023-01-22T20:32:44.109Z,0
2023-01-22T20:37:45.809Z,0
2023-01-22T20:42:47.528Z,0
2023-01-22T20:47:49.294Z,61544
2023-01-22T20:52:50.993Z,0
2023-01-22T20:57:52.703Z,0
2023-01-22T21:02:54.356Z,0
2023-01-22T21:07:55.987Z,0
2023-01-22T21:12:57.649Z,0
2023-01-22T21:17:59.310Z,0
2023-01-22T21:23:01.127Z,0
2023-01-22T21:28:02.807Z,0
2023-01-22T21:33:04.472Z,61544
2023-01-22T21:38:06.072Z,0
2023-01-22T21:43:07.776Z,0
2023-01-22T21:48:09.431Z,0
2023-01-22T21:53:11.110Z,61544
2023-01-22T21:58:12.782Z,0
2023-01-22T22:03:14.442Z,0
2023-01-22T22:08:16.095Z,61544
2023-01-22T22:13:17.738Z,0
2023-01-22T22:18:19.378Z,0
2023-01-22T22:23:21.301Z,30744
2023-01-22T22:28:22.952Z,20477.33333
2023-01-22T22:33:24.606Z,12264
2023-01-22T22:38:26.891Z,10210.66667
2023-01-22T22:43:28.619Z,61544
2023-01-22T22:48:30.251Z,30744
2023-01-22T22:53:32.007Z,10210.66667
2023-01-22T22:58:33.625Z,20477.33333
2023-01-22T23:03:35.329Z,3366.22222
2023-01-22T23:08:37.106Z,3024
2023-01-22T23:13:38.822Z,1151.84314
2023-01-22T23:18:40.500Z,824
2023-01-22T23:23:42.165Z,5544
2023-01-22T23:28:43.808Z,10210.66667
2023-01-22T23:33:45.490Z,15344
2023-01-22T23:38:47.129Z,2744
2023-01-22T23:43:48.810Z,1931.09677
2023-01-22T23:48:50.442Z,6788.44444
2023-01-22T23:53:52.141Z,1755.76471
2023-01-22T23:58:53.852Z,1523.48718
